Time;durP1;ratioP1;P1;durP2;ratioP2;P2;SDS_P1;SDS_P2;PMS_P1;PMS_P2;Temp;Humidity;BMP_temperature;BMP_pressure;BME280_temperature;BME280_humidity;BME280_pressure;Samples;Min_cycle;Max_cycle;Signal;HPM_P1;HPM_P2
2022/06/29 00:03:15;;;;;;;;;;;;;;;18.54;73.07;99185.66;8350781;28;19929;-78
2022/06/29 00:07:17;;;;;;;;;;;;;;;18.52;71.41;99186.66;8346897;28;20616;-78
2022/06/29 00:11:18;;;;;;;;;;;;;;;18.52;70.85;99187.50;8363165;28;19925;-78
2022/06/29 00:15:23;;;;;;;;;;;;;;;18.51;71.92;99188.41;8342538;28;19963;-78
2022/06/29 00:19:31;;;;;;;;;;;;;;;18.54;72.76;99182.19;8344877;28;19928;-78
2022/06/29 00:23:32;;;;;;;;;;;;;;;18.56;73.57;99173.31;8344304;28;19928;-78
2022/06/29 00:27:34;;;;;;;;;;;;;;;18.57;74.29;99177.66;8339446;28;19928;-78
2022/06/29 00:31:35;;;;;;;;;;;;;;;18.58;74.51;99173.25;8358895;28;20003;-78
2022/06/29 00:35:40;;;;;;;;;;;;;;;18.60;74.72;99168.78;8341500;28;20667;-78
2022/06/29 00:39:42;;;;;;;;;;;;;;;18.55;74.89;99171.59;8361727;28;20536;-78
2022/06/29 00:43:44;;;;;;;;;;;;;;;18.53;74.96;99167.31;8359976;28;19929;-78
2022/06/29 00:47:45;;;;;;;;;;;;;;;18.50;75.09;99163.03;8337506;28;19929;-78
2022/06/29 00:51:48;;;;;;;;;;;;;;;18.42;74.30;99173.00;8327550;28;19968;-78
2022/06/29 00:55:51;;;;;;;;;;;;;;;18.39;72.92;99168.72;8328125;28;20659;-78
2022/06/29 00:59:56;;;;;;;;;;;;;;;18.36;73.35;99160.97;8309125;28;20048;-78
2022/06/29 01:03:57;;;;;;;;;;;;;;;18.31;72.05;99164.66;8324575;28;19983;-78
2022/06/29 01:08:00;;;;;;;;;;;;;;;18.31;72.17;99159.41;8310724;28;19929;-78
2022/06/29 01:12:02;;;;;;;;;;;;;;;18.24;72.01;99163.22;8314260;28;19929;-78
2022/06/29 01:16:04;;;;;;;;;;;;;;;18.24;73.00;99157.94;8318366;28;20254;-77
2022/06/29 01:20:06;;;;;;;;;;;;;;;18.19;72.30;99149.41;8310365;28;19979;-78
2022/06/29 01:24:08;;;;;;;;;;;;;;;18.21;71.80;99155.44;8323370;28;19941;-78
2022/06/29 01:28:09;;;;;;;;;;;;;;;18.15;72.35;99147.81;8326719;28;19936;-78
2022/06/29 01:32:12;;;;;;;;;;;;;;;18.17;72.96;99143.34;8338701;28;20233;-78
2022/06/29 01:36:17;;;;;;;;;;;;;;;18.15;72.84;99146.03;8350144;28;19929;-78
2022/06/29 01:40:21;;;;;;;;;;;;;;;18.12;72.75;99141.72;8351009;28;19932;-78
2022/06/29 01:44:23;;;;;;;;;;;;;;;18.11;73.09;99134.78;8359798;28;19932;-77
2022/06/29 01:48:27;;;;;;;;;;;;;;;18.09;73.83;99128.72;8322253;28;20292;-78
2022/06/29 01:52:28;;;;;;;;;;;;;;;18.06;74.11;99126.22;8308719;28;20012;-78
2022/06/29 01:56:30;;;;;;;;;;;;;;;18.06;72.88;99122.72;8326294;28;19961;-78
2022/06/29 02:00:32;;;;;;;;;;;;;;;17.99;72.81;99114.25;8320488;28;20032;-78
2022/06/29 02:04:34;;;;;;;;;;;;;;;18.00;72.97;99100.19;8330747;28;19936;-78
2022/06/29 02:08:36;;;;;;;;;;;;;;;17.96;73.19;99098.59;8330877;28;20040;-78
2022/06/29 02:12:37;;;;;;;;;;;;;;;17.93;73.22;99095.22;8312786;28;20225;-78
2022/06/29 02:16:39;;;;;;;;;;;;;;;17.89;74.64;99085.75;8340007;28;19929;-78
2022/06/29 02:20:41;;;;;;;;;;;;;;;17.84;74.76;99082.47;8314823;28;19929;-78
2022/06/29 02:24:43;;;;;;;;;;;;;;;17.85;75.61;99079.78;8329158;28;19975;-78
2022/06/29 02:28:45;;;;;;;;;;;;;;;17.83;75.71;99078.13;8328194;28;19929;-78
2022/06/29 02:37:07;;;;;;;;;;;;;;;17.74;75.40;99082.81;8327550;28;20242;-78
2022/06/29 02:41:08;;;;;;;;;;;;;;;17.76;75.75;99072.22;8313484;28;19929;-78
2022/06/29 02:45:10;;;;;;;;;;;;;;;17.74;76.34;99072.28;8327920;28;20372;-78
2022/06/29 02:49:12;;;;;;;;;;;;;;;17.75;77.05;99075.78;8343434;28;19929;-78
2022/06/29 02:53:14;;;;;;;;;;;;;;;17.72;76.43;99078.53;8369434;28;19935;-78
2022/06/29 02:57:15;;;;;;;;;;;;;;;17.74;76.90;99076.69;8357332;28;19929;-78
2022/06/29 03:01:17;;;;;;;;;;;;;;;17.76;77.15;99072.22;8360181;28;20337;-78
2022/06/29 03:05:19;;;;;;;;;;;;;;;17.76;78.20;99080.97;8351137;28;19948;-78
2022/06/29 03:09:21;;;;;;;;;;;;;;;17.76;79.16;99077.47;8365051;28;20043;-78
2022/06/29 03:13:22;;;;;;;;;;;;;;;17.73;78.86;99074.97;8361776;28;19967;-78
2022/06/29 03:17:25;;;;;;;;;;;;;;;17.74;79.68;99072.28;8333997;28;20465;-78
2022/06/29 03:21:27;;;;;;;;;;;;;;;17.73;79.64;99082.88;8337353;28;19928;-78
2022/06/29 03:25:29;;;;;;;;;;;;;;;17.69;78.73;99076.03;8352781;28;19960;-78
2022/06/29 03:29:30;;;;;;;;;;;;;;;17.67;79.52;99078.69;8362700;28;19928;-78
2022/06/29 03:33:32;;;;;;;;;;;;;;;17.61;78.79;99078.06;8350220;28;20516;-78
2022/06/29 03:37:34;;;;;;;;;;;;;;;17.50;78.34;99078.47;8342575;28;20418;-79
2022/06/29 03:41:35;;;;;;;;;;;;;;;17.47;78.86;99074.19;8365047;28;19961;-79
2022/06/29 03:45:36;;;;;;;;;;;;;;;17.44;79.19;99079.56;8329245;28;19967;-78
2022/06/29 03:49:38;;;;;;;;;;;;;;;17.41;79.65;99077.00;8361612;28;19998;-78
2022/06/29 03:53:40;;;;;;;;;;;;;;;17.44;79.26;99071.69;8344379;28;19956;-78
2022/06/29 03:57:41;;;;;;;;;;;;;;;17.42;79.86;99083.16;8365732;28;19925;-78
2022/06/29 04:01:43;;;;;;;;;;;;;;;17.41;79.90;99081.41;8345092;28;19925;-78
2022/06/29 04:05:44;;;;;;;;;;;;;;;17.37;79.90;99082.44;8353199;28;19928;-78
2022/06/29 04:09:49;;;;;;;;;;;;;;;17.37;79.81;99077.19;8365130;28;20337;-78
2022/06/29 04:13:53;;;;;;;;;;;;;;;17.36;80.03;99071.09;8362341;28;19929;-78
2022/06/29 04:17:55;;;;;;;;;;;;;;;17.38;79.86;99077.13;8340307;28;19940;-79
2022/06/29 04:21:57;;;;;;;;;;;;;;;17.40;79.93;99082.31;8354700;28;19977;-79
2022/06/29 04:25:59;;;;;;;;;;;;;;;17.40;79.43;99079.69;8346070;28;20011;-79
2022/06/29 04:30:01;;;;;;;;;;;;;;;17.48;79.95;99077.66;8378459;28;19928;-79
2022/06/29 04:34:02;;;;;;;;;;;;;;;17.55;80.17;99086.16;8356973;28;19936;-79
2022/06/29 04:38:04;;;;;;;;;;;;;;;17.51;79.31;99082.78;8330328;28;19928;-79
2022/06/29 04:42:06;;;;;;;;;;;;;;;17.51;79.68;99078.41;8345246;28;20341;-79
2022/06/29 04:46:20;;;;;;;;;;;;;;;17.55;80.07;99083.53;8334444;28;19929;-79
2022/06/29 04:50:22;;;;;;;;;;;;;;;17.53;79.95;99083.59;8358124;28;19994;-79
2022/06/29 04:54:24;;;;;;;;;;;;;;;17.55;79.31;99078.28;8359023;28;20343;-79
2022/06/29 04:58:26;;;;;;;;;;;;;;;17.52;79.45;99071.38;8347884;28;19987;-79
2022/06/29 05:02:27;;;;;;;;;;;;;;;17.57;80.08;99079.94;8335234;28;19937;-78
2022/06/29 05:06:29;;;;;;;;;;;;;;;17.66;79.86;99081.38;8344473;28;19929;-78
2022/06/29 05:10:31;;;;;;;;;;;;;;;17.77;80.42;99073.94;8353379;28;19929;-78
2022/06/29 05:14:32;;;;;;;;;;;;;;;17.83;79.33;99076.34;8349639;28;19925;-78
2022/06/29 05:18:34;;;;;;;;;;;;;;;17.92;79.53;99062.00;8348207;28;20016;-78
2022/06/29 05:22:36;;;;;;;;;;;;;;;18.02;79.85;99066.81;8345948;28;19966;-78
2022/06/29 05:26:38;;;;;;;;;;;;;;;18.12;79.36;99072.56;8357706;28;20023;-77
2022/06/29 05:30:39;;;;;;;;;;;;;;;18.16;78.88;99073.31;8345277;28;19939;-78
2022/06/29 05:34:41;;;;;;;;;;;;;;;18.22;78.68;99068.66;8315015;28;19929;-77
2022/06/29 05:38:43;;;;;;;;;;;;;;;18.32;77.71;99070.00;8325008;28;19936;-77
2022/06/29 05:42:44;;;;;;;;;;;;;;;18.46;78.42;99073.81;8336133;28;19976;-78
2022/06/29 05:46:46;;;;;;;;;;;;;;;18.54;78.79;99074.38;8312039;28;19929;-78
2022/06/29 05:50:47;;;;;;;;;;;;;;;18.65;78.74;99080.03;8314714;28;19940;-78
2022/06/29 05:54:49;;;;;;;;;;;;;;;18.78;79.11;99075.13;8324286;28;20003;-76
2022/06/29 05:58:51;;;;;;;;;;;;;;;18.92;78.94;99078.88;8310975;28;20047;-77
2022/06/29 06:02:52;;;;;;;;;;;;;;;19.07;77.48;99077.34;8315483;28;20361;-77
2022/06/29 06:06:54;;;;;;;;;;;;;;;19.19;75.60;99079.44;8347658;28;19983;-77
2022/06/29 06:10:56;;;;;;;;;;;;;;;19.36;75.07;99073.41;8324496;28;19972;-77
2022/06/29 06:14:59;;;;;;;;;;;;;;;19.60;74.56;99087.28;8327330;28;19956;-77
2022/06/29 06:19:01;;;;;;;;;;;;;;;19.77;74.20;99089.16;8344301;28;20314;-78
2022/06/29 06:23:02;;;;;;;;;;;;;;;19.87;74.18;99095.69;8344831;28;19976;-78
2022/06/29 06:27:05;;;;;;;;;;;;;;;20.07;73.05;99089.47;8302569;28;20230;-78
2022/06/29 06:31:07;;;;;;;;;;;;;;;20.27;71.23;99081.44;8331054;28;19936;-78
2022/06/29 06:35:09;;;;;;;;;;;;;;;20.45;69.38;99088.47;8334357;28;19983;-78
2022/06/29 06:39:10;;;;;;;;;;;;;;;20.66;65.91;99091.00;8306168;28;19940;-78
2022/06/29 06:43:12;;;;;;;;;;;;;;;20.78;65.19;99099.13;8335662;28;19940;-79
2022/06/29 06:47:13;;;;;;;;;;;;;;;20.93;64.73;99101.94;8305335;28;19960;-78
2022/06/29 06:51:14;;;;;;;;;;;;;;;21.01;63.91;99100.63;8333653;28;19983;-78
2022/06/29 06:55:16;;;;;;;;;;;;;;;21.11;63.52;99099.19;8322017;28;19928;-78
2022/06/29 06:59:18;;;;;;;;;;;;;;;21.22;62.33;99105.72;8315557;28;19929;-77
2022/06/29 07:03:21;;;;;;;;;;;;;;;21.36;61.40;99103.22;8317127;28;19935;-78
2022/06/29 07:07:25;;;;;;;;;;;;;;;21.53;58.19;99092.59;8328250;28;20273;-78
2022/06/29 07:11:26;;;;;;;;;;;;;;;21.59;55.44;99097.56;8315178;28;19929;-77
2022/06/29 07:15:32;;;;;;;;;;;;;;;21.70;57.39;99096.97;8291389;28;19933;-78
2022/06/29 07:19:41;;;;;;;;;;;;;;;21.89;57.49;99108.22;8349374;28;19939;-77
2022/06/29 07:23:48;;;;;;;;;;;;;;;21.94;56.46;99106.22;8327255;28;20347;-78
2022/06/29 07:27:50;;;;;;;;;;;;;;;21.99;56.17;99103.31;8327871;28;19929;-78
2022/06/29 07:31:53;;;;;;;;;;;;;;;22.08;56.11;99092.22;8327767;28;19960;-78
2022/06/29 07:35:55;;;;;;;;;;;;;;;22.30;56.83;99092.75;8298764;28;19956;-77
2022/06/29 07:39:57;;;;;;;;;;;;;;;22.72;56.25;99092.97;8301479;28;19929;-78
2022/06/29 07:44:15;;;;;;;;;;;;;;;23.09;54.20;99097.81;8341473;28;19940;-77
2022/06/29 07:48:18;;;;;;;;;;;;;;;23.25;50.50;99094.25;8338351;28;19940;-78
2022/06/29 07:52:19;;;;;;;;;;;;;;;23.59;50.59;99085.09;8350456;28;19929;-77
2022/06/29 07:56:21;;;;;;;;;;;;;;;23.80;49.54;99089.91;8355046;28;19940;-77
2022/06/29 08:00:38;;;;;;;;;;;;;;;23.89;50.00;99091.13;8339621;28;19929;-77
2022/06/29 08:04:39;;;;;;;;;;;;;;;24.10;49.72;99083.59;8356382;28;19929;-77
2022/06/29 08:09:03;;;;;;;;;;;;;;;24.91;47.96;99080.88;8357732;28;19928;-77
2022/06/29 08:13:04;;;;;;;;;;;;;;;25.16;45.84;99082.75;8353532;28;19949;-77
2022/06/29 08:17:05;;;;;;;;;;;;;;;25.54;43.05;99080.91;8353141;28;19933;-77
2022/06/29 08:21:07;;;;;;;;;;;;;;;25.92;42.07;99082.66;8338789;28;19956;-77
2022/06/29 08:25:08;;;;;;;;;;;;;;;26.12;41.75;99081.22;8349760;28;20036;-77
2022/06/29 08:29:11;;;;;;;;;;;;;;;26.29;41.39;99074.66;8360961;28;19963;-77
2022/06/29 08:33:16;;;;;;;;;;;;;;;26.76;42.35;99077.31;8329497;28;20310;-77
2022/06/29 08:37:17;;;;;;;;;;;;;;;26.94;39.95;99076.88;8349315;28;19952;-77
2022/06/29 08:41:19;;;;;;;;;;;;;;;27.04;41.80;99080.53;8357425;28;19968;-77
2022/06/29 08:45:20;;;;;;;;;;;;;;;26.73;40.28;99077.50;8362427;28;19928;-78
2022/06/29 08:49:22;;;;;;;;;;;;;;;26.15;39.77;99079.16;8323131;28;19933;-77
2022/06/29 08:53:23;;;;;;;;;;;;;;;25.76;41.39;99082.06;8330117;28;19933;-77
2022/06/29 08:57:25;;;;;;;;;;;;;;;25.49;40.52;99075.03;8330014;28;20183;-77
2022/06/29 09:01:28;;;;;;;;;;;;;;;25.34;41.97;99084.13;8334627;28;19986;-78
2022/06/29 09:05:33;;;;;;;;;;;;;;;25.29;41.29;99079.09;8362470;28;20731;-77
2022/06/29 09:09:53;;;;;;;;;;;;;;;25.29;43.11;99084.41;8363360;28;19964;-78
2022/06/29 09:14:28;;;;;;;;;;;;;;;25.30;43.00;99087.94;8357004;28;19928;-78
2022/06/29 09:18:32;;;;;;;;;;;;;;;25.25;42.75;99088.25;8304978;28;19984;-78
2022/06/29 09:22:39;;;;;;;;;;;;;;;25.21;44.07;99085.94;8367857;28;20020;-78
2022/06/29 09:26:41;;;;;;;;;;;;;;;25.27;43.92;99085.50;8356407;28;19939;-78
2022/06/29 09:30:43;;;;;;;;;;;;;;;25.36;42.71;99079.53;8334828;28;19925;-78
2022/06/29 09:34:49;;;;;;;;;;;;;;;25.58;44.75;99079.72;8362560;28;20339;-78
2022/06/29 09:38:50;;;;;;;;;;;;;;;25.72;45.57;99089.41;8359738;28;19986;-78
2022/06/29 09:42:52;;;;;;;;;;;;;;;25.75;44.91;99089.19;8351174;28;19929;-78
2022/06/29 09:46:57;;;;;;;;;;;;;;;25.80;46.29;99088.84;8356386;28;19939;-78
2022/06/29 09:50:59;;;;;;;;;;;;;;;25.84;46.07;99085.84;8346523;28;19929;-78
2022/06/29 09:55:02;;;;;;;;;;;;;;;25.84;45.51;99091.19;8360187;28;19929;-78
2022/06/29 09:59:05;;;;;;;;;;;;;;;25.78;43.07;99085.47;8345488;28;19929;-79
2022/06/29 10:03:10;;;;;;;;;;;;;;;25.71;42.74;99084.22;8363416;28;20015;-77
2022/06/29 10:07:12;;;;;;;;;;;;;;;25.58;42.47;99087.69;8341767;28;19967;-77
2022/06/29 10:15:47;;;;;;;;;;;;;;;25.58;43.18;99081.53;8358696;28;19940;-77
2022/06/29 10:20:09;;;;;;;;;;;;;;;25.72;44.06;99085.91;8330154;28;19929;-77
2022/06/29 10:24:10;;;;;;;;;;;;;;;25.87;42.49;99085.66;8329229;28;19940;-78
2022/06/29 10:28:16;;;;;;;;;;;;;;;25.90;42.63;99079.28;8331078;28;19940;-78
2022/06/29 10:32:18;;;;;;;;;;;;;;;26.29;43.44;99085.28;8344101;28;19944;-78
2022/06/29 10:36:20;;;;;;;;;;;;;;;26.69;42.06;99076.06;8330878;28;20348;-78
2022/06/29 10:40:24;;;;;;;;;;;;;;;26.92;39.96;99071.63;8314291;28;20404;-78
2022/06/29 10:44:44;;;;;;;;;;;;;;;27.10;40.90;99072.06;8331312;28;19940;-78
2022/06/29 10:49:05;;;;;;;;;;;;;;;27.46;41.73;99056.81;8340620;28;19933;-78
2022/06/29 10:53:08;;;;;;;;;;;;;;;27.94;40.09;99044.06;8342905;28;20418;-79
2022/06/29 10:57:10;;;;;;;;;;;;;;;28.00;36.57;99048.88;8328172;28;19940;-78
2022/06/29 11:01:11;;;;;;;;;;;;;;;28.20;36.28;99047.28;8341747;28;19932;-78
2022/06/29 11:05:15;;;;;;;;;;;;;;;28.38;36.25;99037.78;8326678;28;19962;-78
2022/06/29 11:13:38;;;;;;;;;;;;;;;29.11;34.60;99030.69;8359654;28;19933;-78
2022/06/29 11:17:46;;;;;;;;;;;;;;;29.40;35.96;99026.31;8322051;28;19929;-78
2022/06/29 11:22:05;;;;;;;;;;;;;;;29.63;35.31;99024.34;8322524;28;19929;-78
2022/06/29 11:26:08;;;;;;;;;;;;;;;29.70;32.52;99012.09;8322369;28;19929;-78
2022/06/29 11:30:18;;;;;;;;;;;;;;;29.78;33.58;99011.38;8318327;28;19933;-79
2022/06/29 11:34:22;;;;;;;;;;;;;;;29.93;33.92;99003.81;8336360;28;20314;-78
2022/06/29 11:38:29;;;;;;;;;;;;;;;29.62;30.84;99005.72;8304553;28;19929;-78
2022/06/29 11:46:58;;;;;;;;;;;;;;;29.03;33.43;99001.09;8318556;28;19935;-77
2022/06/29 11:51:20;;;;;;;;;;;;;;;29.13;34.43;98992.16;8318888;28;19929;-78
2022/06/29 11:55:40;;;;;;;;;;;;;;;29.43;34.31;98988.56;8320277;28;20020;-77
2022/06/29 11:59:45;;;;;;;;;;;;;;;29.53;32.61;98993.16;8317636;28;19929;-77
2022/06/29 12:04:02;;;;;;;;;;;;;;;29.68;34.35;98994.47;8334567;28;20058;-77
2022/06/29 12:08:06;;;;;;;;;;;;;;;29.83;32.61;98990.41;8351318;28;19972;-77
2022/06/29 12:12:25;;;;;;;;;;;;;;;30.07;32.60;98984.69;8351555;28;19929;-77
2022/06/29 12:16:28;;;;;;;;;;;;;;;30.28;33.44;98981.88;8348609;28;19939;-77
2022/06/29 12:20:30;;;;;;;;;;;;;;;30.11;31.83;98979.91;8320438;28;20701;-77
2022/06/29 12:24:39;;;;;;;;;;;;;;;30.44;33.64;98968.75;8352689;28;19928;-77
2022/06/29 12:28:40;;;;;;;;;;;;;;;30.53;33.54;98981.28;8337102;28;20545;-78
2022/06/29 12:32:42;;;;;;;;;;;;;;;30.28;32.32;98981.88;8349830;28;20023;-77
2022/06/29 12:36:46;;;;;;;;;;;;;;;29.88;32.59;98981.97;8318775;28;19929;-77
2022/06/29 12:40:48;;;;;;;;;;;;;;;29.82;34.70;98979.84;8350348;28;19932;-77
2022/06/29 12:44:50;;;;;;;;;;;;;;;29.95;35.78;98977.72;8335655;28;19976;-78
2022/06/29 12:48:51;;;;;;;;;;;;;;;30.06;34.71;98973.13;8349640;28;19929;-78
2022/06/29 12:52:59;;;;;;;;;;;;;;;30.06;34.09;98967.78;8338005;28;19928;-78
2022/06/29 12:57:04;;;;;;;;;;;;;;;30.22;34.53;98969.06;8353874;28;20233;-78
2022/06/29 13:01:06;;;;;;;;;;;;;;;30.30;34.63;98958.47;8349605;28;19929;-78
2022/06/29 13:05:09;;;;;;;;;;;;;;;30.14;33.16;98961.69;8337372;28;19955;-77
2022/06/29 13:09:11;;;;;;;;;;;;;;;30.27;34.33;98954.22;8336401;28;19933;-78
2022/06/29 13:13:13;;;;;;;;;;;;;;;30.34;33.65;98955.38;8354211;28;19955;-77
2022/06/29 13:17:21;;;;;;;;;;;;;;;30.34;34.15;98949.13;8350756;28;20035;-77
2022/06/29 13:21:24;;;;;;;;;;;;;;;30.45;33.86;98942.78;8353143;28;20023;-77
2022/06/29 13:25:32;;;;;;;;;;;;;;;30.23;34.06;98952.84;8353878;28;19939;-78
2022/06/29 13:29:41;;;;;;;;;;;;;;;29.83;35.52;98950.25;8336155;28;20003;-77
2022/06/29 13:33:52;;;;;;;;;;;;;;;29.61;35.24;98943.31;8331025;28;20484;-77
2022/06/29 13:38:22;;;;;;;;;;;;;;;29.67;34.86;98940.09;8348440;28;19929;-78
2022/06/29 13:42:24;;;;;;;;;;;;;;;29.91;32.83;98937.00;8340190;28;19964;-77
2022/06/29 13:46:45;;;;;;;;;;;;;;;30.04;34.95;98924.22;8337988;28;19929;-77
2022/06/29 13:50:48;;;;;;;;;;;;;;;30.26;35.20;98930.28;8341977;28;19933;-78
2022/06/29 13:54:51;;;;;;;;;;;;;;;30.60;34.58;98926.13;8340044;28;20388;-77
2022/06/29 13:58:57;;;;;;;;;;;;;;;30.87;34.54;98913.78;8353198;28;20021;-78
2022/06/29 14:03:02;;;;;;;;;;;;;;;30.99;33.66;98923.34;8350340;28;20586;-75
2022/06/29 14:07:05;;;;;;;;;;;;;;;30.72;33.02;98918.78;8349730;28;20069;-78
2022/06/29 14:11:28;;;;;;;;;;;;;;;30.66;32.28;98911.31;8352645;28;20019;-76
2022/06/29 14:15:34;;;;;;;;;;;;;;;30.72;34.02;98912.59;8340001;28;19929;-77
2022/06/29 14:19:36;;;;;;;;;;;;;;;30.75;34.04;98906.94;8342201;28;19929;-78
2022/06/29 14:23:38;;;;;;;;;;;;;;;30.77;32.88;98911.16;8339498;28;20574;-78
2022/06/29 14:27:40;;;;;;;;;;;;;;;30.89;33.17;98907.28;8335175;28;19964;-78
2022/06/29 14:31:41;;;;;;;;;;;;;;;31.05;33.59;98903.09;8320451;28;19928;-78
2022/06/29 14:35:42;;;;;;;;;;;;;;;31.12;32.80;98901.53;8318345;28;20004;-78
2022/06/29 14:39:46;;;;;;;;;;;;;;;31.37;33.81;98891.97;8316124;28;19983;-79
2022/06/29 14:43:47;;;;;;;;;;;;;;;31.31;33.19;98892.56;8300320;28;19979;-78
2022/06/29 14:47:50;;;;;;;;;;;;;;;30.96;32.41;98894.97;8318753;28;19936;-78
2022/06/29 14:51:51;;;;;;;;;;;;;;;30.76;33.29;98888.00;8324478;28;20694;-77
2022/06/29 14:56:08;;;;;;;;;;;;;;;30.67;30.76;98879.00;8322097;28;19933;-78
2022/06/29 15:00:11;;;;;;;;;;;;;;;30.67;33.07;98883.50;8321315;28;19936;-77
2022/06/29 15:04:16;;;;;;;;;;;;;;;30.66;32.20;98880.00;8322014;28;19956;-78
2022/06/29 15:08:17;;;;;;;;;;;;;;;30.78;32.16;98869.09;8324365;28;19937;-77
2022/06/29 15:12:22;;;;;;;;;;;;;;;30.94;32.98;98856.75;8323966;28;19965;-77
2022/06/29 15:16:27;;;;;;;;;;;;;;;31.04;32.20;98856.66;8320518;28;20225;-77
2022/06/29 15:20:40;;;;;;;;;;;;;;;31.16;33.36;98857.31;8324671;28;19929;-77
2022/06/29 15:24:46;;;;;;;;;;;;;;;30.99;31.79;98850.91;8307692;28;19929;-78
2022/06/29 15:28:49;;;;;;;;;;;;;;;31.12;32.83;98856.78;8305596;28;19936;-78
2022/06/29 15:32:51;;;;;;;;;;;;;;;31.28;33.06;98850.78;8320621;28;20325;-77
2022/06/29 15:41:28;;;;;;;;;;;;;;;30.70;32.18;98845.69;8323146;28;20019;-77
2022/06/29 15:45:33;;;;;;;;;;;;;;;30.85;33.38;98840.69;8297907;28;19929;-77
2022/06/29 15:49:36;;;;;;;;;;;;;;;30.98;30.94;98834.00;8323119;28;19951;-78
2022/06/29 15:57:59;;;;;;;;;;;;;;;31.09;31.44;98824.06;8337342;28;20649;-78
2022/06/29 16:02:01;;;;;;;;;;;;;;;31.12;32.64;98821.91;8317840;28;20309;-78
2022/06/29 16:06:03;;;;;;;;;;;;;;;31.25;32.12;98826.94;8317198;28;20005;-78
2022/06/29 16:10:12;;;;;;;;;;;;;;;31.25;31.41;98824.28;8314908;28;19929;-78
2022/06/29 16:14:13;;;;;;;;;;;;;;;31.10;32.98;98815.00;8338952;28;19940;-78
2022/06/29 16:18:14;;;;;;;;;;;;;;;30.92;31.46;98812.31;8317909;28;20008;-77
2022/06/29 16:22:19;;;;;;;;;;;;;;;30.92;31.59;98805.09;8318540;28;20360;-78
2022/06/29 16:26:56;;;;;;;;;;;;;;;30.97;30.92;98797.44;8549662;27;19930;-76
2022/06/29 16:30:58;;;;;;;;;;;;;;;31.01;31.76;98807.84;8507897;27;20405;-79
2022/06/29 16:35:03;;;;;;;;;;;;;;;30.89;31.61;98796.53;8461607;28;20499;-78
2022/06/29 16:39:09;;;;;;;;;;;;;;;30.74;33.30;98795.31;8487498;27;19991;-77
2022/06/29 16:43:15;;;;;;;;;;;;;;;30.57;32.18;98794.25;8469993;27;19950;-78
2022/06/29 16:47:19;;;;;;;;;;;;;;;30.16;32.92;98796.34;8482672;27;19981;-77
2022/06/29 16:51:25;;;;;;;;;;;;;;;29.70;33.27;98789.94;8485035;27;19927;-77
2022/06/29 16:55:33;;;;;;;;;;;;;;;29.25;35.01;98784.25;8470921;27;19928;-77
2022/06/29 16:59:39;;;;;;;;;;;;;;;28.80;34.86;98783.88;8487648;27;20276;-77
2022/06/29 17:03:45;;;;;;;;;;;;;;;28.42;36.82;98780.13;8463706;28;20005;-77
2022/06/29 17:07:55;;;;;;;;;;;;;;;28.00;36.01;98776.63;8482750;27;19931;-77
2022/06/29 17:11:58;;;;;;;;;;;;;;;27.80;35.73;98783.66;8467995;28;19928;-78
2022/06/29 17:16:03;;;;;;;;;;;;;;;27.60;37.88;98779.97;8462232;28;19928;-77
2022/06/29 17:20:05;;;;;;;;;;;;;;;27.36;39.06;98774.91;8483041;27;19959;-77
2022/06/29 17:24:08;;;;;;;;;;;;;;;27.17;39.78;98772.06;8468344;27;19928;-78
2022/06/29 17:28:10;;;;;;;;;;;;;;;26.86;40.24;98762.19;8472568;28;19927;-77
2022/06/29 17:32:11;;;;;;;;;;;;;;;26.68;41.48;98764.50;8483362;28;20003;-77
2022/06/29 17:36:14;;;;;;;;;;;;;;;26.50;42.63;98765.03;8456400;28;20685;-77
2022/06/29 17:40:16;;;;;;;;;;;;;;;26.32;43.85;98762.94;8449265;28;20015;-77
2022/06/29 17:44:20;;;;;;;;;;;;;;;26.03;45.40;98763.44;8463267;27;20338;-77
2022/06/29 17:48:23;;;;;;;;;;;;;;;25.73;47.26;98763.13;8435630;27;19928;-77
2022/06/29 17:52:24;;;;;;;;;;;;;;;25.52;47.38;98754.94;8448185;28;19928;-77
2022/06/29 17:56:27;;;;;;;;;;;;;;;25.30;47.47;98745.91;8440253;28;20275;-77
2022/06/29 18:00:29;;;;;;;;;;;;;;;25.07;50.70;98751.25;8445433;28;19928;-77
2022/06/29 18:04:32;;;;;;;;;;;;;;;24.82;52.40;98760.16;8443864;28;20023;-77
2022/06/29 18:08:33;;;;;;;;;;;;;;;24.64;53.10;98752.56;8430039;27;19931;-77
2022/06/29 18:12:37;;;;;;;;;;;;;;;24.42;54.92;98752.41;8464194;27;19951;-76
2022/06/29 18:16:38;;;;;;;;;;;;;;;24.20;55.89;98757.47;8429060;27;19934;-77
2022/06/29 18:20:42;;;;;;;;;;;;;;;24.03;56.71;98761.31;8446385;28;19993;-77
2022/06/29 18:24:43;;;;;;;;;;;;;;;23.79;55.21;98763.88;8450920;28;19943;-77
2022/06/29 18:28:47;;;;;;;;;;;;;;;23.59;56.30;98756.41;8419851;27;19932;-77
2022/06/29 18:32:48;;;;;;;;;;;;;;;23.39;55.36;98757.72;8431990;28;20018;-77
2022/06/29 18:36:50;;;;;;;;;;;;;;;23.10;55.32;98755.19;8426226;27;20306;-78
2022/06/29 18:40:51;;;;;;;;;;;;;;;22.95;55.46;98761.50;8440017;27;19927;-77
2022/06/29 18:44:53;;;;;;;;;;;;;;;22.86;55.04;98762.97;8439650;27;20256;-77
2022/06/29 18:48:55;;;;;;;;;;;;;;;22.72;54.86;98762.09;8452142;28;19927;-77
2022/06/29 18:52:56;;;;;;;;;;;;;;;22.54;55.73;98764.97;8448534;28;19928;-77
2022/06/29 18:56:57;;;;;;;;;;;;;;;22.31;56.83;98765.59;8461369;27;20026;-78
2022/06/29 19:00:59;;;;;;;;;;;;;;;22.08;58.78;98774.06;8449885;28;20050;-77
2022/06/29 19:05:02;;;;;;;;;;;;;;;21.94;59.99;98778.38;8454015;27;19927;-77
2022/06/29 19:09:05;;;;;;;;;;;;;;;21.89;59.00;98777.78;8443971;27;20023;-77
2022/06/29 19:13:06;;;;;;;;;;;;;;;21.69;58.50;98781.63;8437196;28;20008;-77
2022/06/29 19:17:07;;;;;;;;;;;;;;;21.57;61.45;98781.53;8464193;27;20010;-77
2022/06/29 19:21:09;;;;;;;;;;;;;;;21.50;61.72;98780.16;8453508;28;19938;-77
2022/06/29 19:25:14;;;;;;;;;;;;;;;21.43;61.23;98782.34;8460124;27;19928;-77
2022/06/29 19:29:15;;;;;;;;;;;;;;;21.31;62.34;98797.09;8455800;27;19931;-77
2022/06/29 19:33:36;;;;;;;;;;;;;;;21.11;64.97;98794.72;8436186;27;19928;-77
2022/06/29 19:37:38;;;;;;;;;;;;;;;21.02;65.68;98796.09;8439618;27;19971;-77
2022/06/29 19:41:40;;;;;;;;;;;;;;;20.94;64.82;98806.22;8420212;27;20280;-77
2022/06/29 19:45:46;;;;;;;;;;;;;;;20.89;65.21;98802.16;8406759;28;19985;-76
2022/06/29 19:49:54;;;;;;;;;;;;;;;20.80;64.46;98809.63;8426659;28;19934;-76
2022/06/29 19:54:14;;;;;;;;;;;;;;;20.71;65.73;98815.41;8449653;27;19932;-78
2022/06/29 19:58:16;;;;;;;;;;;;;;;20.59;66.32;98821.34;8459501;27;19928;-78
2022/06/29 20:02:18;;;;;;;;;;;;;;;20.45;68.15;98822.09;8415280;27;20058;-78
2022/06/29 20:06:19;;;;;;;;;;;;;;;20.44;67.97;98830.09;8417184;27;19928;-78
2022/06/29 20:10:21;;;;;;;;;;;;;;;20.30;69.48;98830.81;8435911;28;19928;-78
2022/06/29 20:14:22;;;;;;;;;;;;;;;20.16;70.26;98838.59;8424167;27;20018;-78
2022/06/29 20:18:24;;;;;;;;;;;;;;;20.19;71.19;98836.63;8434269;28;19932;-78
2022/06/29 20:22:25;;;;;;;;;;;;;;;20.24;70.27;98844.28;8435114;28;19958;-78
2022/06/29 20:26:29;;;;;;;;;;;;;;;20.16;68.70;98849.97;8417539;28;20335;-75
2022/06/29 20:30:33;;;;;;;;;;;;;;;20.18;69.28;98852.53;8444255;28;19928;-76
2022/06/29 20:34:34;;;;;;;;;;;;;;;20.09;68.67;98850.38;8442585;28;19951;-76
2022/06/29 20:38:36;;;;;;;;;;;;;;;20.10;69.59;98858.19;8441616;28;19936;-76
2022/06/29 20:42:40;;;;;;;;;;;;;;;20.08;69.22;98862.69;8431031;28;19931;-76
2022/06/29 20:46:42;;;;;;;;;;;;;;;20.06;68.25;98861.06;8432232;28;19928;-76
2022/06/29 20:50:45;;;;;;;;;;;;;;;20.11;68.89;98859.06;8394151;28;20039;-76
2022/06/29 20:54:46;;;;;;;;;;;;;;;20.04;71.16;98868.22;8414797;28;19975;-75
2022/06/29 20:58:47;;;;;;;;;;;;;;;19.90;72.13;98858.38;8414962;28;20027;-74
2022/06/29 21:02:51;;;;;;;;;;;;;;;19.80;71.32;98858.00;8415434;28;20009;-76
2022/06/29 21:06:55;;;;;;;;;;;;;;;19.73;70.67;98861.84;8396239;28;20006;-77
2022/06/29 21:10:58;;;;;;;;;;;;;;;19.61;71.21;98862.47;8420535;28;19932;-78
2022/06/29 21:15:00;;;;;;;;;;;;;;;19.56;70.71;98865.31;8422037;28;19963;-78
2022/06/29 21:19:02;;;;;;;;;;;;;;;19.36;71.62;98875.09;8396003;28;19928;-78
2022/06/29 21:23:04;;;;;;;;;;;;;;;19.29;72.57;98878.03;8416830;28;20415;-78
2022/06/29 21:27:06;;;;;;;;;;;;;;;19.22;73.79;98879.25;8427758;28;19932;-78
2022/06/29 21:31:10;;;;;;;;;;;;;;;19.10;74.57;98890.38;8403436;28;19979;-78
2022/06/29 21:35:12;;;;;;;;;;;;;;;19.04;74.74;98895.91;8418532;28;19932;-78
2022/06/29 21:39:14;;;;;;;;;;;;;;;18.99;75.06;98893.47;8415205;28;20340;-78